Kuznetsk, Russia
Current Conditions -  °F | °C
As of 12:00 PM on Thursday 27 Nov 2014 (Local Time) from UWLW Reporting Station
Light Snow Light Snow  
Wind Chill: 21°   Ceiling: 900
Heat Index: 21°   Visibility: 5mi
Dew Point: 18°   Wind: 0mph
Humidity: 86%   Direction: NA
Pressure: 30.53"   Gusts: NA
Location:  53.12°N, 46.6°E
Report Text: UWLW 270900Z 00000MPS 8000 -SN OVC009 M06/M08 Q1034 20CLRD60NOSIG RMK QFE770
Loading
Personal Weather Stations






























Interactive Weather Map New forecast layout! Learn more

10-Day Weather Forecast

Advertisements
Track Severe Weather on mobile